Tybee Island, GA (31328)

3:06 PM EDT on September 30, 2014 (GMT -0400)
Tid-Bit | Change Station
CLOSE
Current Station
Personal Weather Station
Location: Tybee Island, GA
Elevation: 10 ft
Nearby Weather Stations

Elev 10 ft 32.01 °N, 80.85 °W | Updated 11 minutes ago

Mostly Cloudy
Mostly Cloudy
80.2 °F
Feels Like 83 °F
N
1.0
Wind Variable Wind from ESE
Gusts 5.0 mph

Today
High -- | Low -- °F
--% Chance of Precip.
Yesterday
High -- | Low -- °F
Precip. -- in
7:16 AM 7:09 PM
Waxing Crescent, 39% visible
Pressure 29.87 in
Visibility 10.0 miles
Clouds Few 2400 ft
Heat Index 83 °F
Dew Point 69 °F
Humidity 69%
Rainfall 0.00 in
Snow Depth Not available.
UV 7 out of 12
Pollen 5.20 out of 12
Air Quality Not available.
Flu Activity Not available.
METAR KHXD 301850Z 34007KT 10SM FEW024 25/18 A2987

More Conditions Fewer Conditions

Pressure 29.87 in
Visibility 10.0 miles
Clouds Few 2400 ft
Heat Index 83 °F
Dew Point 69 °F
Humidity 69%
Rainfall 0.00 in
Snow Depth Not available.
UV 7 out of 12
Pollen 5.20 out of 12
Air Quality Not available.
Flu Activity Not available.
METAR KHXD 301850Z 34007KT 10SM FEW024 25/18 A2987

More Conditions Fewer Conditions

10-Day Weather Forecast

Almanac

Astronomy

Sep. 30, 2014 Rise Set
Actual Time 7:16 AM EDT 7:09 PM EDT
Civil Twilight 6:52 AM EDT 7:33 PM EDT
Nautical Twilight 6:23 AM EDT 8:02 PM EDT
Astronomical Twilight 5:55 AM EDT 8:30 PM EDT
Moon 1:07 PM EDT 11:53 PM EDT
Length of Visible Light 12h 41m
Length of Day
11h 52m
Tomorrow will be 1m 57s shorter.
Waxing Crescent, 39% of the Moon is Illuminated
Today
Waxing Crescent
Oct 1
First Quarter
Oct 8
Full
Oct 15
Last Quarter
Oct 23
New

Today's Extremes

State Highs State Lows

Community

WunderPhotos

Upload Photos

1,757,719 photos uploaded!

Nearby

Snow Depth

Station Depth Elevation
No new snow has been reported.

Earthquake Activity

City Distance Mag. Time & Date
No recent earthquake activity has been reported nearby.
Minimum magnitude displayed is 2.5.

Coastal Water Temperatures

Place Temperature
No Stations Reporting

Nearby Weather Stations